Time;durP1;ratioP1;P1;durP2;ratioP2;P2;SDS_P1;SDS_P2;PMS_P1;PMS_P2;Temp;Humidity;BMP_temperature;BMP_pressure;BME280_temperature;BME280_humidity;BME280_pressure;Samples;Min_cycle;Max_cycle;Signal;HPM_P1;HPM_P2
2020/12/18 00:00:16;;;;;;;5.90;3.87;;;9.30;99.90;;;;;;5047746;28;20175;-71
2020/12/18 00:02:42;;;;;;;4.13;3.33;;;9.30;99.90;;;;;;5055380;28;20207;-71
2020/12/18 00:05:07;;;;;;;4.33;3.50;;;9.30;99.90;;;;;;5046679;28;20219;-71
2020/12/18 00:07:33;;;;;;;3.40;3.10;;;9.40;99.90;;;;;;5061108;28;20189;-71
2020/12/18 00:09:58;;;;;;;6.60;3.37;;;9.40;99.90;;;;;;5061195;28;20201;-72
2020/12/18 00:12:24;;;;;;;7.30;4.10;;;9.40;99.90;;;;;;5041249;28;20173;-72
2020/12/18 00:14:49;;;;;;;3.77;3.40;;;9.40;99.90;;;;;;5055348;28;20206;-73
2020/12/18 00:17:15;;;;;;;4.60;3.40;;;9.50;99.90;;;;;;5055363;28;20179;-72
2020/12/18 00:19:40;;;;;;;4.57;3.50;;;9.50;99.90;;;;;;5049297;28;20178;-71
2020/12/18 00:22:06;;;;;;;4.23;3.47;;;9.50;99.90;;;;;;5035928;28;20170;-72
2020/12/18 00:24:31;;;;;;;4.23;3.30;;;9.50;99.90;;;;;;5048649;28;20202;-72
2020/12/18 00:26:57;;;;;;;5.57;3.10;;;9.50;99.90;;;;;;5047387;28;20327;-72
2020/12/18 00:29:22;;;;;;;4.77;3.20;;;9.50;99.90;;;;;;5044065;28;20514;-72
2020/12/18 00:31:48;;;;;;;5.20;4.47;;;9.60;99.90;;;;;;5042644;28;20752;-72
2020/12/18 00:34:14;;;;;;;4.80;3.67;;;9.50;99.90;;;;;;5054648;28;20208;-72
2020/12/18 00:36:39;;;;;;;4.67;3.17;;;9.50;99.90;;;;;;5055166;28;20252;-71
2020/12/18 00:39:06;;;;;;;3.90;3.10;;;9.50;99.90;;;;;;5046832;28;20417;-71
2020/12/18 00:41:32;;;;;;;5.80;3.10;;;9.50;99.90;;;;;;5047200;28;20173;-71
2020/12/18 00:43:58;;;;;;;5.77;3.07;;;9.50;99.90;;;;;;5055411;28;20917;-72
2020/12/18 00:46:24;;;;;;;5.00;3.20;;;9.50;99.90;;;;;;5051875;28;20447;-72
2020/12/18 00:48:49;;;;;;;6.60;3.10;;;9.50;99.90;;;;;;5048879;28;20986;-72
2020/12/18 00:51:16;;;;;;;4.43;3.23;;;9.60;99.90;;;;;;5045357;28;20217;-70
2020/12/18 00:53:42;;;;;;;3.77;3.13;;;9.60;99.90;;;;;;5054577;28;20548;-70
2020/12/18 00:56:08;;;;;;;3.47;2.87;;;9.60;99.90;;;;;;5038869;28;20448;-71
2020/12/18 00:58:33;;;;;;;4.67;3.43;;;9.50;99.90;;;;;;5046584;28;20185;-70
2020/12/18 01:00:59;;;;;;;5.13;3.30;;;9.50;99.90;;;;;;5039925;28;20436;-70
2020/12/18 01:03:25;;;;;;;4.30;3.00;;;9.50;99.90;;;;;;5043401;28;20176;-71
2020/12/18 01:05:50;;;;;;;4.23;3.37;;;9.40;99.90;;;;;;5035034;28;20201;-71
2020/12/18 01:08:16;;;;;;;5.03;3.07;;;9.40;99.90;;;;;;5043163;28;20537;-71
2020/12/18 01:10:41;;;;;;;3.30;3.00;;;9.20;99.90;;;;;;5043534;28;20539;-71
2020/12/18 01:13:07;;;;;;;4.30;3.40;;;9.20;99.90;;;;;;5038717;28;20634;-71
2020/12/18 01:15:32;;;;;;;3.97;3.17;;;9.20;99.90;;;;;;5046150;28;20204;-71
2020/12/18 01:17:58;;;;;;;5.13;3.23;;;9.20;99.90;;;;;;5049569;28;20188;-71
2020/12/18 01:20:23;;;;;;;8.70;3.50;;;9.20;99.90;;;;;;5043010;28;20650;-71
2020/12/18 01:22:49;;;;;;;7.93;3.10;;;9.10;99.90;;;;;;5043335;28;20300;-71
2020/12/18 01:25:14;;;;;;;3.53;3.27;;;9.10;99.90;;;;;;5034776;28;20261;-71
2020/12/18 01:27:40;;;;;;;5.90;3.17;;;9.10;99.90;;;;;;5051909;28;20206;-71
2020/12/18 01:30:05;;;;;;;4.50;2.80;;;9.10;99.90;;;;;;5049282;28;20180;-71
2020/12/18 01:32:31;;;;;;;3.90;3.57;;;9.10;99.90;;;;;;5034861;28;20196;-71
2020/12/18 01:34:56;;;;;;;5.00;3.20;;;9.00;99.90;;;;;;5043579;28;20304;-71
2020/12/18 01:37:22;;;;;;;5.27;2.67;;;9.00;99.90;;;;;;5047593;28;20677;-71
2020/12/18 01:39:47;;;;;;;5.97;3.37;;;9.00;99.90;;;;;;5052244;28;20181;-71
2020/12/18 01:42:13;;;;;;;3.60;2.80;;;9.00;99.90;;;;;;5052611;28;20179;-71
2020/12/18 01:44:38;;;;;;;6.23;3.43;;;9.00;99.90;;;;;;5047502;28;20640;-71
2020/12/18 01:47:27;;;;;;;4.73;2.50;;;8.90;99.90;;;;;;5053459;28;20579;-71
2020/12/18 01:49:53;;;;;;;4.10;2.90;;;8.90;99.90;;;;;;5043073;28;20179;-71
2020/12/18 01:52:19;;;;;;;6.20;3.33;;;8.90;99.90;;;;;;5045849;28;20492;-71
2020/12/18 01:54:45;;;;;;;5.13;3.30;;;8.90;99.90;;;;;;5053244;28;20728;-71
2020/12/18 01:57:11;;;;;;;9.63;3.30;;;8.80;99.90;;;;;;5051574;28;20435;-71
2020/12/18 01:59:37;;;;;;;3.87;3.20;;;8.80;99.90;;;;;;5038583;28;20440;-70
2020/12/18 02:02:03;;;;;;;3.43;2.77;;;8.80;99.90;;;;;;5043420;28;20435;-71
2020/12/18 02:04:52;;;;;;;3.10;2.60;;;8.80;99.90;;;;;;5036730;28;20436;-71
2020/12/18 02:07:22;;;;;;;5.37;2.90;;;8.80;99.90;;;;;;5036425;28;20189;-71
2020/12/18 02:09:48;;;;;;;3.47;3.00;;;8.70;99.90;;;;;;5051665;28;20518;-71
2020/12/18 02:12:14;;;;;;;3.47;2.87;;;8.70;99.90;;;;;;5050835;28;20417;-71
2020/12/18 02:14:40;;;;;;;6.50;3.03;;;8.70;99.90;;;;;;5045098;28;20787;-72
2020/12/18 02:17:06;;;;;;;6.67;2.70;;;8.60;99.90;;;;;;5051882;28;20665;-71
2020/12/18 02:19:35;;;;;;;3.70;2.60;;;8.60;99.90;;;;;;5048127;28;20410;-71
2020/12/18 02:22:13;;;;;;;6.13;2.97;;;8.60;99.90;;;;;;5049097;28;20430;-71
2020/12/18 02:24:46;;;;;;;5.27;2.50;;;8.60;99.90;;;;;;5042548;28;20431;-71
2020/12/18 02:27:12;;;;;;;7.70;3.30;;;8.50;99.90;;;;;;5044817;28;20451;-71
2020/12/18 02:29:37;;;;;;;3.83;3.23;;;8.40;99.90;;;;;;5045169;28;20440;-71
2020/12/18 02:32:03;;;;;;;5.13;2.60;;;8.30;99.90;;;;;;5053029;28;20193;-72
2020/12/18 02:34:28;;;;;;;3.77;2.70;;;8.20;99.90;;;;;;5049568;28;20268;-71
2020/12/18 02:36:54;;;;;;;2.70;2.50;;;8.20;99.90;;;;;;5036130;28;20200;-71
2020/12/18 02:39:19;;;;;;;3.37;2.53;;;8.10;99.90;;;;;;5043794;28;20257;-71
2020/12/18 02:41:45;;;;;;;5.00;2.67;;;8.00;99.90;;;;;;5048314;28;20188;-71
2020/12/18 02:44:11;;;;;;;4.83;2.70;;;8.00;99.90;;;;;;5051052;28;20224;-71
2020/12/18 02:46:36;;;;;;;3.37;2.90;;;7.90;99.90;;;;;;5053151;28;20190;-72
2020/12/18 02:49:03;;;;;;;8.10;3.20;;;7.90;99.90;;;;;;5044486;28;20422;-72
2020/12/18 02:51:29;;;;;;;5.70;3.27;;;7.90;99.90;;;;;;5053409;28;20182;-72
2020/12/18 02:53:55;;;;;;;5.93;2.70;;;7.90;99.90;;;;;;5052777;28;20460;-71
2020/12/18 02:56:27;;;;;;;6.50;2.93;;;7.90;99.90;;;;;;5044221;28;20447;-72
2020/12/18 02:58:52;;;;;;;3.33;2.50;;;8.00;99.90;;;;;;5039809;28;20179;-72
2020/12/18 03:01:19;;;;;;;3.67;2.60;;;8.00;99.90;;;;;;5044399;28;20940;-72
2020/12/18 03:03:45;;;;;;;7.80;2.83;;;8.00;99.90;;;;;;5041539;28;20179;-70
2020/12/18 03:06:10;;;;;;;4.23;2.67;;;8.00;99.90;;;;;;5040259;28;20437;-71
2020/12/18 03:08:36;;;;;;;7.10;3.13;;;8.00;99.90;;;;;;5050738;28;20759;-70
2020/12/18 03:11:02;;;;;;;3.50;2.80;;;8.10;99.90;;;;;;5046707;28;20174;-70
2020/12/18 03:13:28;;;;;;;5.03;3.13;;;8.10;99.90;;;;;;5052958;28;20256;-70
2020/12/18 03:15:55;;;;;;;7.00;2.73;;;8.10;99.90;;;;;;5040373;28;20917;-72
2020/12/18 03:18:20;;;;;;;3.90;3.10;;;8.10;99.90;;;;;;5048627;28;20466;-72
2020/12/18 03:20:46;;;;;;;3.50;2.80;;;8.10;99.90;;;;;;5036416;28;20420;-72
2020/12/18 03:23:11;;;;;;;3.73;2.80;;;8.00;99.90;;;;;;5053060;28;20182;-70
2020/12/18 03:25:37;;;;;;;6.43;3.27;;;8.00;99.90;;;;;;5052432;28;20549;-71
2020/12/18 03:28:02;;;;;;;6.87;3.33;;;8.00;99.90;;;;;;5049031;28;20732;-70
2020/12/18 03:30:29;;;;;;;4.20;2.70;;;8.00;99.90;;;;;;5042713;28;20177;-70
2020/12/18 03:32:54;;;;;;;3.27;2.90;;;8.00;99.90;;;;;;5043963;28;20167;-71
2020/12/18 03:35:21;;;;;;;4.77;3.07;;;8.10;99.90;;;;;;5039831;28;20973;-71
2020/12/18 03:37:46;;;;;;;5.23;4.30;;;8.10;99.90;;;;;;5039740;28;20167;-70
2020/12/18 03:40:12;;;;;;;5.27;3.17;;;8.10;99.90;;;;;;5067975;28;20512;-71
2020/12/18 03:42:38;;;;;;;6.93;3.50;;;8.10;99.90;;;;;;5070413;28;20177;-71
2020/12/18 03:45:03;;;;;;;6.90;3.20;;;8.10;99.90;;;;;;5057022;28;20184;-70
2020/12/18 03:47:29;;;;;;;9.13;4.03;;;8.10;99.90;;;;;;5037530;28;20171;-71
2020/12/18 03:49:55;;;;;;;6.60;4.10;;;8.20;99.90;;;;;;5049149;28;20212;-71
2020/12/18 03:52:20;;;;;;;4.10;3.70;;;8.10;99.90;;;;;;5056400;28;20178;-71
2020/12/18 03:54:45;;;;;;;4.80;3.33;;;8.10;99.90;;;;;;5056005;28;20202;-71
2020/12/18 03:57:11;;;;;;;5.03;3.83;;;8.10;99.90;;;;;;5049000;28;20214;-71
2020/12/18 03:59:37;;;;;;;3.83;3.43;;;8.10;99.90;;;;;;5056068;28;20706;-73
2020/12/18 04:02:02;;;;;;;10.97;3.60;;;8.10;99.90;;;;;;5047571;28;20367;-71
2020/12/18 04:04:28;;;;;;;5.93;3.50;;;8.10;99.90;;;;;;5045144;28;20175;-71
2020/12/18 04:06:53;;;;;;;5.93;3.43;;;8.10;99.90;;;;;;5055789;28;20197;-71
2020/12/18 04:09:22;;;;;;;4.93;3.73;;;8.10;99.90;;;;;;5055462;28;20186;-71
2020/12/18 04:11:47;;;;;;;9.80;3.93;;;8.10;99.90;;;;;;5051373;28;20182;-71
2020/12/18 04:14:13;;;;;;;7.70;3.90;;;8.10;99.90;;;;;;5044396;28;20454;-71
2020/12/18 04:16:38;;;;;;;5.87;3.87;;;8.10;99.90;;;;;;5055399;28;21114;-73
2020/12/18 04:19:05;;;;;;;4.43;3.43;;;8.10;99.90;;;;;;5052931;28;20190;-71
2020/12/18 04:21:30;;;;;;;6.73;3.50;;;8.10;99.90;;;;;;5059966;28;20261;-71
2020/12/18 04:23:55;;;;;;;4.77;3.30;;;8.10;99.90;;;;;;5060549;28;20503;-71
2020/12/18 04:26:21;;;;;;;5.10;3.53;;;8.10;99.90;;;;;;5044754;28;20210;-71
2020/12/18 04:28:46;;;;;;;7.53;4.30;;;8.10;99.90;;;;;;5041201;28;20194;-70
2020/12/18 04:31:12;;;;;;;5.27;3.53;;;8.10;99.90;;;;;;5056745;28;20178;-70
2020/12/18 04:33:38;;;;;;;5.63;3.50;;;8.10;99.90;;;;;;5043755;28;20223;-71
2020/12/18 04:36:04;;;;;;;4.93;4.30;;;8.10;99.90;;;;;;5040973;28;20190;-70
2020/12/18 04:38:29;;;;;;;4.97;3.53;;;8.10;99.90;;;;;;5040721;28;20437;-70
2020/12/18 04:40:55;;;;;;;4.40;3.50;;;8.10;99.90;;;;;;5057832;28;20182;-71
2020/12/18 04:43:20;;;;;;;3.00;2.80;;;8.10;99.90;;;;;;5060624;28;20178;-71
2020/12/18 04:45:47;;;;;;;8.60;4.10;;;8.10;99.90;;;;;;5058990;28;20222;-70
2020/12/18 04:48:16;;;;;;;5.93;3.63;;;8.10;99.90;;;;;;5050976;28;20179;-71
2020/12/18 04:50:42;;;;;;;3.67;3.37;;;8.10;99.90;;;;;;5051423;28;20446;-71
2020/12/18 04:53:09;;;;;;;4.57;3.43;;;8.00;99.90;;;;;;5039727;28;20424;-71
2020/12/18 04:55:35;;;;;;;5.50;3.47;;;8.00;99.90;;;;;;5054522;28;20502;-71
2020/12/18 04:58:02;;;;;;;3.87;3.33;;;8.00;99.90;;;;;;5056000;28;20798;-71
2020/12/18 05:00:28;;;;;;;4.77;3.37;;;8.00;99.90;;;;;;5054292;28;20426;-71
2020/12/18 05:02:54;;;;;;;4.83;3.30;;;8.00;99.90;;;;;;5055844;28;20486;-71
2020/12/18 05:05:19;;;;;;;3.90;2.77;;;8.00;99.90;;;;;;5054978;28;20217;-72
2020/12/18 05:07:45;;;;;;;3.37;3.03;;;8.00;99.90;;;;;;5054908;28;20213;-72
2020/12/18 05:10:11;;;;;;;5.20;3.80;;;8.00;99.90;;;;;;5039305;28;20199;-72
2020/12/18 05:12:37;;;;;;;5.27;3.23;;;8.00;99.90;;;;;;5044584;28;20186;-72
2020/12/18 05:15:04;;;;;;;4.40;3.17;;;7.90;99.90;;;;;;5040996;28;20483;-72
2020/12/18 05:17:29;;;;;;;3.20;2.90;;;7.90;99.90;;;;;;5054886;28;20437;-72
2020/12/18 05:19:55;;;;;;;3.93;3.53;;;7.90;99.90;;;;;;5055081;28;20426;-72
2020/12/18 05:22:24;;;;;;;4.87;3.70;;;8.00;99.90;;;;;;5054607;28;20898;-72
2020/12/18 05:24:51;;;;;;;5.70;3.87;;;8.00;99.90;;;;;;5043527;28;20190;-72
2020/12/18 05:27:16;;;;;;;3.53;3.23;;;8.00;99.90;;;;;;5035383;28;20984;-72
2020/12/18 05:29:42;;;;;;;3.37;3.07;;;8.00;99.90;;;;;;5044335;28;20482;-72
2020/12/18 05:32:10;;;;;;;7.57;3.57;;;8.00;99.90;;;;;;5054879;28;20181;-71
2020/12/18 05:34:39;;;;;;;3.57;3.27;;;8.00;99.90;;;;;;5054086;28;20700;-71
2020/12/18 05:37:05;;;;;;;7.03;3.63;;;8.00;99.90;;;;;;5035648;28;20430;-71
2020/12/18 05:39:33;;;;;;;6.03;3.93;;;8.00;99.90;;;;;;5034922;28;20939;-71
2020/12/18 05:42:04;;;;;;;7.23;3.63;;;7.90;99.90;;;;;;5035048;28;20187;-70
2020/12/18 05:44:30;;;;;;;6.20;3.30;;;7.90;99.90;;;;;;5048357;28;20452;-71
2020/12/18 05:47:04;;;;;;;4.17;3.03;;;7.90;99.90;;;;;;5037022;28;20446;-72
2020/12/18 05:49:35;;;;;;;5.90;3.70;;;7.90;99.90;;;;;;5034679;28;20481;-71
2020/12/18 05:52:03;;;;;;;4.63;3.80;;;8.00;99.90;;;;;;5047603;28;20453;-71
2020/12/18 05:54:38;;;;;;;6.93;3.23;;;7.90;99.90;;;;;;5034647;28;20479;-71
2020/12/18 05:57:12;;;;;;;3.43;3.13;;;7.90;99.90;;;;;;5034842;28;20512;-71
2020/12/18 05:59:47;;;;;;;6.00;3.30;;;7.90;99.90;;;;;;5046771;28;20941;-71
2020/12/18 06:02:17;;;;;;;12.10;3.70;;;8.00;99.90;;;;;;5053818;28;20507;-71
2020/12/18 06:04:44;;;;;;;3.63;3.30;;;7.90;99.90;;;;;;5052835;28;20506;-71
2020/12/18 06:07:10;;;;;;;3.90;3.10;;;7.90;99.90;;;;;;5037903;28;20433;-71
2020/12/18 06:09:36;;;;;;;5.20;3.10;;;7.90;99.90;;;;;;5045305;28;20422;-71
2020/12/18 06:12:07;;;;;;;4.43;2.87;;;8.00;99.90;;;;;;5053817;28;20185;-71
2020/12/18 06:14:33;;;;;;;5.07;2.57;;;7.90;99.90;;;;;;5035038;28;20552;-71
2020/12/18 06:17:06;;;;;;;6.47;3.40;;;7.90;99.90;;;;;;5034276;28;20513;-71
2020/12/18 06:19:37;;;;;;;3.07;2.77;;;7.90;99.90;;;;;;5034982;28;20421;-71
2020/12/18 06:22:03;;;;;;;3.27;2.97;;;7.90;99.90;;;;;;5053131;28;20447;-71
2020/12/18 06:24:28;;;;;;;5.73;3.70;;;7.90;99.90;;;;;;5036501;28;20437;-71
2020/12/18 06:26:56;;;;;;;8.50;3.90;;;7.90;99.90;;;;;;5038034;28;20187;-71
2020/12/18 06:29:23;;;;;;;5.57;3.23;;;7.90;99.90;;;;;;5033995;28;20167;-71
2020/12/18 06:31:49;;;;;;;3.23;3.00;;;7.90;99.90;;;;;;5034087;28;20426;-71
2020/12/18 06:34:29;;;;;;;5.07;3.20;;;7.90;99.90;;;;;;5046667;28;20543;-71
2020/12/18 06:36:59;;;;;;;5.00;3.00;;;7.90;99.90;;;;;;5053097;28;20227;-71
2020/12/18 06:39:32;;;;;;;6.37;3.87;;;7.90;99.90;;;;;;5053864;28;20413;-70
2020/12/18 06:42:26;;;;;;;6.67;3.87;;;7.80;99.90;;;;;;5042886;28;20442;-71
2020/12/18 06:44:57;;;;;;;11.83;4.40;;;7.90;99.90;;;;;;5033939;28;20467;-71
2020/12/18 06:47:28;;;;;;;6.13;3.70;;;7.90;99.90;;;;;;5035357;28;20421;-72
2020/12/18 06:49:59;;;;;;;6.40;4.40;;;7.80;99.90;;;;;;5042618;28;20455;-70
2020/12/18 06:52:42;;;;;;;7.57;3.30;;;7.80;99.90;;;;;;5048177;28;20808;-72
2020/12/18 06:55:10;;;;;;;7.40;3.40;;;7.80;99.90;;;;;;5033367;28;20765;-71
2020/12/18 06:57:37;;;;;;;3.70;3.30;;;7.90;99.90;;;;;;5038727;28;20466;-71
2020/12/18 07:00:21;;;;;;;3.67;3.07;;;7.80;99.90;;;;;;5034772;28;20448;-72
2020/12/18 07:02:47;;;;;;;4.70;3.70;;;7.80;99.90;;;;;;5048178;28;20425;-72
2020/12/18 07:05:33;;;;;;;3.27;3.00;;;7.80;99.90;;;;;;5054004;28;20837;-72
2020/12/18 07:08:01;;;;;;;3.90;3.50;;;7.80;99.90;;;;;;5042511;28;20907;-72
2020/12/18 07:10:29;;;;;;;8.27;3.13;;;7.80;99.90;;;;;;5051831;28;20439;-71
2020/12/18 07:12:59;;;;;;;4.40;2.67;;;7.80;99.90;;;;;;5052783;28;20764;-72
2020/12/18 07:15:43;;;;;;;3.83;3.00;;;7.80;99.90;;;;;;5043413;28;20468;-71
2020/12/18 07:18:23;;;;;;;5.17;3.43;;;7.80;99.90;;;;;;5032883;28;20520;-71
2020/12/18 07:20:51;;;;;;;5.70;3.67;;;7.80;99.90;;;;;;5033279;28;20432;-71
2020/12/18 07:23:17;;;;;;;4.47;3.20;;;7.80;99.90;;;;;;5051492;28;20527;-71
2020/12/18 07:25:43;;;;;;;4.77;3.97;;;7.80;99.90;;;;;;5041976;28;20463;-71
2020/12/18 07:28:10;;;;;;;4.43;3.30;;;7.80;99.90;;;;;;5050162;28;20464;-71
2020/12/18 07:30:44;;;;;;;7.03;3.70;;;7.80;99.90;;;;;;5051907;28;20421;-71
2020/12/18 07:33:11;;;;;;;4.83;3.57;;;7.80;99.90;;;;;;5052257;28;20535;-71
2020/12/18 07:35:41;;;;;;;4.70;3.60;;;7.80;99.90;;;;;;5043594;28;20505;-71
2020/12/18 07:38:18;;;;;;;4.80;3.30;;;7.80;99.90;;;;;;5032379;28;20413;-72
2020/12/18 07:40:45;;;;;;;8.93;3.47;;;7.80;99.90;;;;;;5033579;28;20425;-71
2020/12/18 07:43:13;;;;;;;3.63;2.97;;;7.80;99.90;;;;;;5045589;28;20432;-72
2020/12/18 07:45:44;;;;;;;4.73;2.93;;;7.90;99.90;;;;;;5051225;28;20431;-72
2020/12/18 07:48:11;;;;;;;3.60;3.30;;;7.90;99.90;;;;;;5048456;28;20437;-72
2020/12/18 07:50:37;;;;;;;4.03;3.33;;;7.90;99.90;;;;;;5042904;28;20424;-72
2020/12/18 07:53:10;;;;;;;3.77;3.10;;;7.90;99.90;;;;;;5050040;28;20506;-73
2020/12/18 07:55:36;;;;;;;5.33;2.67;;;7.90;99.90;;;;;;5051227;28;20903;-72
2020/12/18 07:58:01;;;;;;;5.20;3.77;;;7.90;99.90;;;;;;5039607;28;20425;-72
2020/12/18 08:00:27;;;;;;;3.13;2.93;;;7.90;99.90;;;;;;5048153;28;20175;-71
2020/12/18 08:02:53;;;;;;;3.93;3.50;;;7.90;99.90;;;;;;5050682;28;20579;-71
2020/12/18 08:05:22;;;;;;;4.13;3.20;;;7.90;99.90;;;;;;5043401;28;20276;-71
2020/12/18 08:07:58;;;;;;;3.87;3.30;;;8.00;99.90;;;;;;5052283;28;20511;-70
2020/12/18 08:10:25;;;;;;;6.07;3.63;;;8.00;99.90;;;;;;5047362;28;20893;-72
2020/12/18 08:12:51;;;;;;;5.50;3.40;;;8.00;99.90;;;;;;5050601;28;20504;-71
2020/12/18 08:15:19;;;;;;;4.30;3.40;;;8.00;99.90;;;;;;5051630;28;20551;-72
2020/12/18 08:17:45;;;;;;;6.20;3.60;;;8.00;99.90;;;;;;5046864;28;20254;-72
2020/12/18 08:20:13;;;;;;;4.00;3.53;;;8.00;99.90;;;;;;5045161;28;20444;-73
2020/12/18 08:22:44;;;;;;;5.47;3.37;;;8.10;99.90;;;;;;5051279;28;20546;-73
2020/12/18 08:25:11;;;;;;;6.00;3.37;;;8.10;99.90;;;;;;5063255;28;21504;-73
2020/12/18 08:27:50;;;;;;;4.43;3.33;;;8.10;99.90;;;;;;5046213;28;20420;-72
2020/12/18 08:30:17;;;;;;;5.53;3.50;;;8.10;99.90;;;;;;5055246;28;20500;-72
2020/12/18 08:32:48;;;;;;;4.60;3.27;;;8.10;99.90;;;;;;5044059;28;20498;-72
2020/12/18 08:35:19;;;;;;;5.33;3.23;;;8.10;99.90;;;;;;5051605;28;20466;-72
2020/12/18 08:37:48;;;;;;;5.93;3.80;;;8.20;99.90;;;;;;5051032;28;20528;-72
2020/12/18 08:40:21;;;;;;;3.80;3.40;;;8.20;99.90;;;;;;5054163;28;20467;-72
2020/12/18 08:43:00;;;;;;;4.90;2.70;;;8.20;99.90;;;;;;5056204;28;20422;-72
2020/12/18 08:45:26;;;;;;;6.70;3.67;;;8.20;99.90;;;;;;5055634;28;20795;-73
2020/12/18 08:47:58;;;;;;;4.23;3.83;;;8.20;99.90;;;;;;5050689;28;20492;-73
2020/12/18 08:50:24;;;;;;;4.77;3.37;;;8.20;99.90;;;;;;5054730;28;20464;-73
2020/12/18 08:52:49;;;;;;;4.53;3.10;;;8.30;99.90;;;;;;5054853;28;20417;-72
2020/12/18 08:55:21;;;;;;;8.43;4.17;;;8.30;99.90;;;;;;5052758;28;20221;-72
2020/12/18 08:57:47;;;;;;;5.00;3.37;;;8.30;99.90;;;;;;5051798;28;20231;-71
2020/12/18 09:00:20;;;;;;;5.20;3.30;;;8.30;99.90;;;;;;5042088;28;20465;-73
2020/12/18 09:02:48;;;;;;;3.93;3.10;;;8.40;99.90;;;;;;5052754;28;20424;-72
2020/12/18 09:05:26;;;;;;;4.60;2.90;;;8.40;99.90;;;;;;5054617;28;20442;-73
2020/12/18 09:07:54;;;;;;;4.40;2.87;;;8.40;99.90;;;;;;5051366;28;20432;-73
2020/12/18 09:10:52;;;;;;;3.83;3.40;;;8.50;99.90;;;;;;5042916;28;20413;-73
2020/12/18 09:13:23;;;;;;;4.27;3.57;;;8.50;99.90;;;;;;5048922;28;20939;-72
2020/12/18 09:16:00;;;;;;;4.63;2.80;;;8.50;99.90;;;;;;5047044;28;20445;-73
2020/12/18 09:18:27;;;;;;;3.73;2.97;;;8.60;99.90;;;;;;5054757;28;20971;-72
2020/12/18 09:20:54;;;;;;;7.97;3.50;;;8.60;99.90;;;;;;5054053;28;20437;-72
2020/12/18 09:23:31;;;;;;;3.73;3.10;;;8.60;99.90;;;;;;5054757;28;20413;-71
2020/12/18 09:25:59;;;;;;;5.63;3.07;;;8.60;99.90;;;;;;5053227;28;20849;-71
2020/12/18 09:28:25;;;;;;;4.13;3.03;;;8.70;99.90;;;;;;5049303;28;20967;-72
2020/12/18 09:30:56;;;;;;;4.20;2.50;;;8.70;99.90;;;;;;5033735;28;20497;-71
2020/12/18 09:33:30;;;;;;;3.17;2.47;;;8.70;99.90;;;;;;5046768;28;20456;-72
2020/12/18 09:35:58;;;;;;;4.87;3.03;;;8.80;99.90;;;;;;5040737;28;20940;-72
2020/12/18 09:38:32;;;;;;;2.73;2.53;;;8.80;99.90;;;;;;5050071;28;20781;-72
2020/12/18 09:41:00;;;;;;;4.17;2.83;;;8.90;99.90;;;;;;5052863;28;20432;-71
2020/12/18 09:43:26;;;;;;;5.43;2.47;;;8.80;99.90;;;;;;5042211;28;20437;-72
2020/12/18 09:45:53;;;;;;;3.13;2.77;;;8.80;99.90;;;;;;5041964;28;20449;-72
2020/12/18 09:48:19;;;;;;;5.50;2.33;;;8.90;99.90;;;;;;5053104;28;20433;-72
2020/12/18 09:50:45;;;;;;;4.03;2.47;;;8.90;99.90;;;;;;5053519;28;20795;-72
2020/12/18 09:53:10;;;;;;;7.40;2.70;;;9.00;99.90;;;;;;5039540;28;20946;-71
2020/12/18 09:55:36;;;;;;;3.60;2.70;;;9.10;99.90;;;;;;5035345;28;20557;-70
2020/12/18 09:58:03;;;;;;;4.37;2.67;;;9.10;99.90;;;;;;5048524;28;20180;-71
2020/12/18 10:00:29;;;;;;;5.73;3.23;;;9.20;99.90;;;;;;5048615;28;20429;-71
2020/12/18 10:02:55;;;;;;;3.20;2.70;;;9.20;99.90;;;;;;5055513;28;20421;-71
2020/12/18 10:05:21;;;;;;;3.70;2.50;;;9.20;99.90;;;;;;5053479;28;20556;-72
2020/12/18 10:07:47;;;;;;;2.67;2.47;;;9.30;99.90;;;;;;5033672;28;20418;-71
2020/12/18 10:10:12;;;;;;;3.17;2.87;;;9.30;99.90;;;;;;5033671;28;20188;-71
2020/12/18 10:12:38;;;;;;;3.17;2.23;;;9.30;99.90;;;;;;5037076;28;20649;-71
2020/12/18 10:15:04;;;;;;;3.50;2.43;;;9.40;99.90;;;;;;5052438;28;20200;-72
2020/12/18 10:17:29;;;;;;;3.93;3.07;;;9.40;99.90;;;;;;5052784;28;20179;-73
2020/12/18 10:19:55;;;;;;;4.10;3.20;;;9.40;99.90;;;;;;5047354;28;20918;-73
2020/12/18 10:22:20;;;;;;;6.10;3.10;;;9.40;99.90;;;;;;5033514;28;20222;-71
2020/12/18 10:24:46;;;;;;;3.10;2.80;;;9.40;99.90;;;;;;5033923;28;20179;-72
2020/12/18 10:27:12;;;;;;;3.57;2.43;;;9.40;99.90;;;;;;5041929;28;20204;-70
2020/12/18 10:29:38;;;;;;;3.33;2.60;;;9.50;99.90;;;;;;5042196;28;20190;-72
2020/12/18 10:32:04;;;;;;;3.53;2.50;;;9.50;99.90;;;;;;5034308;28;20432;-72
2020/12/18 10:34:30;;;;;;;3.20;2.33;;;9.60;99.90;;;;;;5044265;28;20475;-71
2020/12/18 10:36:56;;;;;;;2.87;2.27;;;9.60;99.90;;;;;;5054452;28;20285;-71
2020/12/18 10:39:23;;;;;;;3.73;2.77;;;9.60;99.90;;;;;;5059648;28;20257;-71
2020/12/18 10:41:50;;;;;;;5.17;2.50;;;9.70;99.90;;;;;;5059272;28;20425;-71
2020/12/18 10:44:16;;;;;;;2.83;2.50;;;9.70;99.90;;;;;;5048279;28;20504;-72
2020/12/18 10:46:44;;;;;;;4.43;2.67;;;9.70;99.90;;;;;;5037956;28;20788;-72
2020/12/18 10:49:09;;;;;;;2.50;2.30;;;9.80;99.90;;;;;;5045820;28;20429;-72
2020/12/18 10:51:39;;;;;;;3.07;2.27;;;9.80;99.90;;;;;;5035967;28;20478;-72
2020/12/18 10:54:05;;;;;;;7.03;2.07;;;9.90;99.90;;;;;;5033736;28;20213;-72
2020/12/18 10:56:30;;;;;;;2.40;2.20;;;9.90;99.90;;;;;;5049567;28;20440;-72
2020/12/18 10:58:56;;;;;;;4.20;2.40;;;9.90;99.90;;;;;;5052044;28;20826;-72
2020/12/18 11:01:22;;;;;;;1.80;1.70;;;10.00;99.90;;;;;;5038271;28;20224;-72
2020/12/18 11:03:48;;;;;;;2.77;2.23;;;10.10;99.90;;;;;;5032737;28;20534;-72
2020/12/18 11:06:13;;;;;;;9.93;3.47;;;10.10;99.90;;;;;;5033392;28;20548;-73
2020/12/18 11:08:39;;;;;;;8.23;2.87;;;10.20;99.90;;;;;;5034403;28;20708;-71
2020/12/18 11:11:11;;;;;;;3.30;2.67;;;10.20;99.90;;;;;;5038714;28;20272;-72
2020/12/18 11:13:36;;;;;;;2.70;2.17;;;10.30;99.90;;;;;;5037204;28;20523;-72
2020/12/18 11:16:01;;;;;;;2.63;1.97;;;10.40;99.90;;;;;;5051481;28;20455;-72
2020/12/18 11:18:27;;;;;;;2.33;2.10;;;10.40;99.90;;;;;;5051913;28;20249;-72
2020/12/18 11:20:52;;;;;;;2.40;1.97;;;10.50;99.90;;;;;;5049456;28;20171;-72
2020/12/18 11:23:18;;;;;;;2.00;1.83;;;10.50;99.90;;;;;;5044298;28;20189;-72
2020/12/18 11:25:43;;;;;;;3.23;1.77;;;10.50;99.90;;;;;;5051136;28;20201;-72
2020/12/18 11:28:09;;;;;;;2.50;2.30;;;10.50;99.90;;;;;;5040133;28;20224;-71
2020/12/18 11:30:34;;;;;;;2.23;2.00;;;10.70;99.90;;;;;;5040787;28;20281;-71
2020/12/18 11:33:01;;;;;;;3.60;2.10;;;10.90;99.90;;;;;;5051818;28;20193;-72
2020/12/18 11:35:26;;;;;;;2.90;2.27;;;11.10;99.90;;;;;;5045304;28;20199;-71
2020/12/18 11:37:52;;;;;;;3.43;2.33;;;11.20;99.90;;;;;;5042606;28;20752;-71
2020/12/18 11:40:17;;;;;;;3.60;2.23;;;11.40;99.90;;;;;;5038717;28;20554;-71
2020/12/18 11:42:43;;;;;;;1.93;1.83;;;11.60;99.90;;;;;;5033879;28;20199;-71
2020/12/18 11:45:08;;;;;;;4.67;1.57;;;11.70;99.90;;;;;;5051708;28;20174;-72
2020/12/18 11:47:34;;;;;;;2.10;1.87;;;11.70;99.90;;;;;;5051563;28;20182;-71
2020/12/18 11:49:59;;;;;;;2.03;1.83;;;11.80;99.90;;;;;;5041392;28;21917;-71
2020/12/18 11:52:25;;;;;;;4.13;2.30;;;11.80;99.90;;;;;;5039516;28;20571;-71
2020/12/18 11:54:50;;;;;;;2.60;1.87;;;11.70;99.90;;;;;;5042498;28;20265;-71
2020/12/18 11:57:16;;;;;;;6.90;2.30;;;11.70;99.90;;;;;;5039655;28;20175;-71
2020/12/18 11:59:41;;;;;;;3.50;2.10;;;11.70;99.90;;;;;;5044284;28;20265;-71
2020/12/18 12:02:08;;;;;;;2.67;2.47;;;11.70;99.90;;;;;;5054910;28;20189;-70
2020/12/18 12:04:33;;;;;;;4.37;3.97;;;11.70;99.90;;;;;;5048087;28;20543;-72
2020/12/18 12:06:59;;;;;;;5.13;4.63;;;11.70;99.90;;;;;;5048860;28;20460;-72
2020/12/18 12:09:24;;;;;;;5.93;4.87;;;11.80;99.90;;;;;;5050393;28;20273;-72
2020/12/18 12:11:50;;;;;;;5.80;3.73;;;11.90;99.90;;;;;;5051777;28;20182;-71
2020/12/18 12:14:15;;;;;;;2.53;2.00;;;12.00;99.90;;;;;;5054865;28;20206;-73
2020/12/18 12:16:41;;;;;;;2.30;2.10;;;12.00;99.90;;;;;;5055254;28;20285;-72
2020/12/18 12:19:08;;;;;;;3.90;2.83;;;11.90;99.90;;;;;;5045124;28;20209;-72
2020/12/18 12:21:35;;;;;;;3.53;2.00;;;11.90;99.90;;;;;;5052741;28;20175;-72
2020/12/18 12:24:02;;;;;;;2.60;2.20;;;11.80;99.90;;;;;;5054653;28;20481;-72
2020/12/18 12:26:32;;;;;;;2.13;1.93;;;11.70;99.90;;;;;;5036374;28;20441;-72
2020/12/18 12:28:57;;;;;;;2.77;1.57;;;11.70;99.90;;;;;;5036683;28;20429;-72
2020/12/18 12:31:24;;;;;;;2.97;2.13;;;11.70;99.90;;;;;;5055499;28;20416;-73
2020/12/18 12:33:53;;;;;;;3.53;2.30;;;11.60;99.90;;;;;;5054765;28;20704;-73
2020/12/18 12:36:24;;;;;;;4.10;2.27;;;11.50;99.90;;;;;;5046756;28;20964;-73
2020/12/18 12:38:52;;;;;;;3.67;2.40;;;11.50;99.90;;;;;;5048880;28;21053;-73
2020/12/18 12:41:17;;;;;;;4.73;2.23;;;11.50;99.90;;;;;;5036242;28;20908;-73
2020/12/18 12:43:43;;;;;;;2.47;1.93;;;11.50;99.90;;;;;;5034420;28;20951;-73
2020/12/18 12:46:12;;;;;;;1.90;1.70;;;11.40;99.90;;;;;;5044542;28;20189;-74
2020/12/18 12:48:38;;;;;;;2.73;1.63;;;11.40;99.90;;;;;;5049676;28;20461;-70
2020/12/18 12:51:04;;;;;;;2.90;1.97;;;11.40;99.90;;;;;;5043274;28;20801;-73
2020/12/18 12:53:32;;;;;;;2.23;1.67;;;11.30;99.90;;;;;;5054285;28;20178;-72
2020/12/18 12:55:58;;;;;;;2.07;1.90;;;11.30;99.90;;;;;;5055258;28;20228;-71